sensor_id;sensor_type;location;lat;lon;timestamp;temperature;humidity
74087;SHT30;62445;48.406;-4.518;2023-04-03T00:00:49;21.41;47.38
74087;SHT30;62445;48.406;-4.518;2023-04-03T00:03:16;21.44;47.41
74087;SHT30;62445;48.406;-4.518;2023-04-03T00:05:41;21.40;47.52
74087;SHT30;62445;48.406;-4.518;2023-04-03T00:08:07;21.40;47.35
74087;SHT30;62445;48.406;-4.518;2023-04-03T00:10:35;21.41;47.38
74087;SHT30;62445;48.406;-4.518;2023-04-03T00:13:02;21.40;47.33
74087;SHT30;62445;48.406;-4.518;2023-04-03T00:15:27;21.41;47.41
74087;SHT30;62445;48.406;-4.518;2023-04-03T00:17:52;21.40;47.39
74087;SHT30;62445;48.406;-4.518;2023-04-03T00:20:18;21.40;47.49
74087;SHT30;62445;48.406;-4.518;2023-04-03T00:22:43;21.41;47.53
74087;SHT30;62445;48.406;-4.518;2023-04-03T00:25:09;21.44;47.46
74087;SHT30;62445;48.406;-4.518;2023-04-03T00:27:39;21.47;47.55
74087;SHT30;62445;48.406;-4.518;2023-04-03T00:30:07;21.50;47.53
74087;SHT30;62445;48.406;-4.518;2023-04-03T00:32:34;21.52;47.63
74087;SHT30;62445;48.406;-4.518;2023-04-03T00:34:59;21.57;47.60
74087;SHT30;62445;48.406;-4.518;2023-04-03T00:37:25;21.59;47.52
74087;SHT30;62445;48.406;-4.518;2023-04-03T00:39:50;21.61;47.51
74087;SHT30;62445;48.406;-4.518;2023-04-03T00:42:16;21.65;47.55
74087;SHT30;62445;48.406;-4.518;2023-04-03T00:47:09;21.69;47.49
74087;SHT30;62445;48.406;-4.518;2023-04-03T00:49:37;21.74;47.48
74087;SHT30;62445;48.406;-4.518;2023-04-03T00:52:03;21.74;47.46
74087;SHT30;62445;48.406;-4.518;2023-04-03T00:54:29;21.74;47.47
74087;SHT30;62445;48.406;-4.518;2023-04-03T00:56:57;21.75;47.35
74087;SHT30;62445;48.406;-4.518;2023-04-03T00:59:26;21.78;47.51
74087;SHT30;62445;48.406;-4.518;2023-04-03T01:01:54;21.77;47.41
74087;SHT30;62445;48.406;-4.518;2023-04-03T01:04:40;21.75;47.50
74087;SHT30;62445;48.406;-4.518;2023-04-03T01:07:32;21.75;47.51
74087;SHT30;62445;48.406;-4.518;2023-04-03T01:10:02;21.75;47.58
74087;SHT30;62445;48.406;-4.518;2023-04-03T01:12:35;21.74;47.55
74087;SHT30;62445;48.406;-4.518;2023-04-03T01:15:06;21.72;47.57
74087;SHT30;62445;48.406;-4.518;2023-04-03T01:17:44;21.72;47.55
74087;SHT30;62445;48.406;-4.518;2023-04-03T01:25:37;21.69;47.56
74087;SHT30;62445;48.406;-4.518;2023-04-03T01:28:04;21.66;47.47
74087;SHT30;62445;48.406;-4.518;2023-04-03T01:30:34;21.68;47.52
74087;SHT30;62445;48.406;-4.518;2023-04-03T01:33:01;21.65;47.49
74087;SHT30;62445;48.406;-4.518;2023-04-03T01:35:26;21.68;47.46
74087;SHT30;62445;48.406;-4.518;2023-04-03T01:37:52;21.63;47.48
74087;SHT30;62445;48.406;-4.518;2023-04-03T01:40:18;21.62;47.48
74087;SHT30;62445;48.406;-4.518;2023-04-03T01:42:44;21.63;47.44
74087;SHT30;62445;48.406;-4.518;2023-04-03T01:45:09;21.62;47.44
74087;SHT30;62445;48.406;-4.518;2023-04-03T01:47:35;21.62;47.50
74087;SHT30;62445;48.406;-4.518;2023-04-03T01:50:00;21.61;47.46
74087;SHT30;62445;48.406;-4.518;2023-04-03T01:52:26;21.61;47.46
74087;SHT30;62445;48.406;-4.518;2023-04-03T01:54:51;21.61;47.41
74087;SHT30;62445;48.406;-4.518;2023-04-03T01:57:17;21.59;47.44
74087;SHT30;62445;48.406;-4.518;2023-04-03T01:59:43;21.58;47.40
74087;SHT30;62445;48.406;-4.518;2023-04-03T02:02:09;21.58;47.42
74087;SHT30;62445;48.406;-4.518;2023-04-03T02:04:34;21.57;47.43
74087;SHT30;62445;48.406;-4.518;2023-04-03T02:07:00;21.57;47.44
74087;SHT30;62445;48.406;-4.518;2023-04-03T02:09:25;21.54;47.39
74087;SHT30;62445;48.406;-4.518;2023-04-03T02:11:52;21.54;47.44
74087;SHT30;62445;48.406;-4.518;2023-04-03T02:14:17;21.58;47.38
74087;SHT30;62445;48.406;-4.518;2023-04-03T02:16:43;21.54;47.34
74087;SHT30;62445;48.406;-4.518;2023-04-03T02:19:08;21.52;47.36
74087;SHT30;62445;48.406;-4.518;2023-04-03T02:21:34;21.54;47.36
74087;SHT30;62445;48.406;-4.518;2023-04-03T02:23:59;21.52;47.39
74087;SHT30;62445;48.406;-4.518;2023-04-03T02:26:25;21.50;47.33
74087;SHT30;62445;48.406;-4.518;2023-04-03T02:28:51;21.48;47.38
74087;SHT30;62445;48.406;-4.518;2023-04-03T02:31:17;21.50;47.33
74087;SHT30;62445;48.406;-4.518;2023-04-03T02:33:43;21.47;47.27
74087;SHT30;62445;48.406;-4.518;2023-04-03T02:36:08;21.48;47.34
74087;SHT30;62445;48.406;-4.518;2023-04-03T02:38:35;21.47;47.29
74087;SHT30;62445;48.406;-4.518;2023-04-03T02:41:05;21.45;47.28
74087;SHT30;62445;48.406;-4.518;2023-04-03T02:43:31;21.45;47.32
74087;SHT30;62445;48.406;-4.518;2023-04-03T02:45:56;21.44;47.17
74087;SHT30;62445;48.406;-4.518;2023-04-03T02:48:22;21.44;47.30
74087;SHT30;62445;48.406;-4.518;2023-04-03T02:50:48;21.45;47.32
74087;SHT30;62445;48.406;-4.518;2023-04-03T02:53:14;21.42;47.33
74087;SHT30;62445;48.406;-4.518;2023-04-03T02:55:40;21.44;47.38
74087;SHT30;62445;48.406;-4.518;2023-04-03T02:58:05;21.41;47.29
74087;SHT30;62445;48.406;-4.518;2023-04-03T03:00:31;21.42;47.32
74087;SHT30;62445;48.406;-4.518;2023-04-03T03:02:56;21.41;47.32
74087;SHT30;62445;48.406;-4.518;2023-04-03T03:05:22;21.40;47.40
74087;SHT30;62445;48.406;-4.518;2023-04-03T03:07:47;21.41;47.38
74087;SHT30;62445;48.406;-4.518;2023-04-03T03:10:13;21.40;47.39
74087;SHT30;62445;48.406;-4.518;2023-04-03T03:12:38;21.38;47.32
74087;SHT30;62445;48.406;-4.518;2023-04-03T03:15:06;21.38;47.22
74087;SHT30;62445;48.406;-4.518;2023-04-03T03:17:31;21.35;47.24
74087;SHT30;62445;48.406;-4.518;2023-04-03T03:19:57;21.37;47.32
74087;SHT30;62445;48.406;-4.518;2023-04-03T03:22:22;21.34;47.23
74087;SHT30;62445;48.406;-4.518;2023-04-03T03:24:48;21.37;47.28
74087;SHT30;62445;48.406;-4.518;2023-04-03T03:27:13;21.35;47.12
74087;SHT30;62445;48.406;-4.518;2023-04-03T03:29:38;21.35;47.22
74087;SHT30;62445;48.406;-4.518;2023-04-03T03:32:04;21.32;47.19
74087;SHT30;62445;48.406;-4.518;2023-04-03T03:34:30;21.32;47.21
74087;SHT30;62445;48.406;-4.518;2023-04-03T03:36:55;21.34;47.15
74087;SHT30;62445;48.406;-4.518;2023-04-03T03:39:20;21.32;47.13
74087;SHT30;62445;48.406;-4.518;2023-04-03T03:41:46;21.31;47.05
74087;SHT30;62445;48.406;-4.518;2023-04-03T03:44:12;21.31;47.07
74087;SHT30;62445;48.406;-4.518;2023-04-03T03:46:38;21.30;46.96
74087;SHT30;62445;48.406;-4.518;2023-04-03T03:49:03;21.28;46.92
74087;SHT30;62445;48.406;-4.518;2023-04-03T03:51:28;21.28;46.96
74087;SHT30;62445;48.406;-4.518;2023-04-03T03:53:54;21.28;46.91
74087;SHT30;62445;48.406;-4.518;2023-04-03T03:56:20;21.30;46.89
74087;SHT30;62445;48.406;-4.518;2023-04-03T03:58:45;21.30;46.94
74087;SHT30;62445;48.406;-4.518;2023-04-03T04:01:11;21.32;46.95
74087;SHT30;62445;48.406;-4.518;2023-04-03T04:03:36;21.34;46.86
74087;SHT30;62445;48.406;-4.518;2023-04-03T04:06:02;21.40;46.88
74087;SHT30;62445;48.406;-4.518;2023-04-03T04:08:27;21.40;46.78
74087;SHT30;62445;48.406;-4.518;2023-04-03T04:10:53;21.45;46.80
74087;SHT30;62445;48.406;-4.518;2023-04-03T04:13:18;21.48;46.76
74087;SHT30;62445;48.406;-4.518;2023-04-03T04:15:44;21.52;46.68
74087;SHT30;62445;48.406;-4.518;2023-04-03T04:18:09;21.57;46.71
74087;SHT30;62445;48.406;-4.518;2023-04-03T04:20:35;21.58;46.70
74087;SHT30;62445;48.406;-4.518;2023-04-03T04:23:00;21.59;46.56
74087;SHT30;62445;48.406;-4.518;2023-04-03T04:25:26;21.61;46.63
74087;SHT30;62445;48.406;-4.518;2023-04-03T04:27:51;21.63;46.40
74087;SHT30;62445;48.406;-4.518;2023-04-03T04:30:17;21.63;46.67
74087;SHT30;62445;48.406;-4.518;2023-04-03T04:32:42;21.62;46.63
74087;SHT30;62445;48.406;-4.518;2023-04-03T04:35:08;21.65;46.62
74087;SHT30;62445;48.406;-4.518;2023-04-03T04:37:33;21.65;46.40
74087;SHT30;62445;48.406;-4.518;2023-04-03T04:39:59;21.65;46.65
74087;SHT30;62445;48.406;-4.518;2023-04-03T04:42:24;21.63;46.54
74087;SHT30;62445;48.406;-4.518;2023-04-03T04:44:50;21.65;46.36
74087;SHT30;62445;48.406;-4.518;2023-04-03T04:47:16;21.62;46.35
74087;SHT30;62445;48.406;-4.518;2023-04-03T04:49:41;21.63;46.49
74087;SHT30;62445;48.406;-4.518;2023-04-03T04:52:07;21.61;46.43
74087;SHT30;62445;48.406;-4.518;2023-04-03T04:54:32;21.61;46.56
74087;SHT30;62445;48.406;-4.518;2023-04-03T04:56:58;21.59;46.59
74087;SHT30;62445;48.406;-4.518;2023-04-03T04:59:23;21.58;46.46
74087;SHT30;62445;48.406;-4.518;2023-04-03T05:01:49;21.57;46.54
74087;SHT30;62445;48.406;-4.518;2023-04-03T05:04:14;21.55;46.29
74087;SHT30;62445;48.406;-4.518;2023-04-03T05:06:40;21.54;46.26
74087;SHT30;62445;48.406;-4.518;2023-04-03T05:09:05;21.55;46.35
74087;SHT30;62445;48.406;-4.518;2023-04-03T05:11:31;21.52;46.44
74087;SHT30;62445;48.406;-4.518;2023-04-03T05:13:57;21.50;46.40
74087;SHT30;62445;48.406;-4.518;2023-04-03T05:16:22;21.52;46.42
74087;SHT30;62445;48.406;-4.518;2023-04-03T05:18:48;21.50;46.56
74087;SHT30;62445;48.406;-4.518;2023-04-03T05:21:13;21.51;46.40
74087;SHT30;62445;48.406;-4.518;2023-04-03T05:23:39;21.48;46.47
74087;SHT30;62445;48.406;-4.518;2023-04-03T05:26:04;21.47;46.55
74087;SHT30;62445;48.406;-4.518;2023-04-03T05:28:30;21.47;46.38
74087;SHT30;62445;48.406;-4.518;2023-04-03T05:30:57;21.45;46.48
74087;SHT30;62445;48.406;-4.518;2023-04-03T05:33:25;21.45;46.49
74087;SHT30;62445;48.406;-4.518;2023-04-03T05:35:52;21.44;46.27
74087;SHT30;62445;48.406;-4.518;2023-04-03T05:38:17;21.42;46.37
74087;SHT30;62445;48.406;-4.518;2023-04-03T05:40:43;21.44;46.48
74087;SHT30;62445;48.406;-4.518;2023-04-03T05:43:09;21.40;46.57
74087;SHT30;62445;48.406;-4.518;2023-04-03T05:45:34;21.40;46.55
74087;SHT30;62445;48.406;-4.518;2023-04-03T05:48:00;21.41;46.59
74087;SHT30;62445;48.406;-4.518;2023-04-03T05:50:25;21.40;46.53
74087;SHT30;62445;48.406;-4.518;2023-04-03T05:52:52;21.38;46.65
74087;SHT30;62445;48.406;-4.518;2023-04-03T05:55:20;21.37;46.56
74087;SHT30;62445;48.406;-4.518;2023-04-03T05:57:45;21.37;46.55
74087;SHT30;62445;48.406;-4.518;2023-04-03T06:00:15;21.34;46.70
74087;SHT30;62445;48.406;-4.518;2023-04-03T06:02:41;21.37;46.71
74087;SHT30;62445;48.406;-4.518;2023-04-03T06:05:08;21.34;46.66
74087;SHT30;62445;48.406;-4.518;2023-04-03T06:07:34;21.35;46.51
74087;SHT30;62445;48.406;-4.518;2023-04-03T06:09:59;21.37;46.41
74087;SHT30;62445;48.406;-4.518;2023-04-03T06:12:25;21.34;46.47
74087;SHT30;62445;48.406;-4.518;2023-04-03T06:14:51;21.34;46.54
74087;SHT30;62445;48.406;-4.518;2023-04-03T06:17:16;21.32;46.45
74087;SHT30;62445;48.406;-4.518;2023-04-03T06:19:43;21.32;46.40
74087;SHT30;62445;48.406;-4.518;2023-04-03T06:22:08;21.28;46.48
74087;SHT30;62445;48.406;-4.518;2023-04-03T06:24:34;21.31;46.49
74087;SHT30;62445;48.406;-4.518;2023-04-03T06:27:00;21.28;46.46
74087;SHT30;62445;48.406;-4.518;2023-04-03T06:29:26;21.30;46.48
74087;SHT30;62445;48.406;-4.518;2023-04-03T06:31:51;21.30;46.47
74087;SHT30;62445;48.406;-4.518;2023-04-03T06:34:17;21.28;46.44
74087;SHT30;62445;48.406;-4.518;2023-04-03T06:36:43;21.28;46.44
74087;SHT30;62445;48.406;-4.518;2023-04-03T06:39:15;21.27;46.50
74087;SHT30;62445;48.406;-4.518;2023-04-03T06:41:40;21.27;46.50
74087;SHT30;62445;48.406;-4.518;2023-04-03T06:44:06;21.27;46.56
74087;SHT30;62445;48.406;-4.518;2023-04-03T06:46:31;21.24;46.60
74087;SHT30;62445;48.406;-4.518;2023-04-03T06:48:56;21.23;46.45
74087;SHT30;62445;48.406;-4.518;2023-04-03T06:51:29;21.24;46.50
74087;SHT30;62445;48.406;-4.518;2023-04-03T06:53:57;21.24;46.50
74087;SHT30;62445;48.406;-4.518;2023-04-03T06:56:23;21.24;46.49
74087;SHT30;62445;48.406;-4.518;2023-04-03T06:58:50;21.20;46.35
74087;SHT30;62445;48.406;-4.518;2023-04-03T07:01:17;21.21;46.32
74087;SHT30;62445;48.406;-4.518;2023-04-03T07:03:44;21.20;46.37
74087;SHT30;62445;48.406;-4.518;2023-04-03T07:06:12;21.21;46.34
74087;SHT30;62445;48.406;-4.518;2023-04-03T07:08:39;21.20;46.36
74087;SHT30;62445;48.406;-4.518;2023-04-03T07:11:05;21.20;46.40
74087;SHT30;62445;48.406;-4.518;2023-04-03T07:13:31;21.21;46.30
74087;SHT30;62445;48.406;-4.518;2023-04-03T07:15:57;21.24;46.32
74087;SHT30;62445;48.406;-4.518;2023-04-03T07:18:23;21.24;46.29
74087;SHT30;62445;48.406;-4.518;2023-04-03T07:20:49;21.30;46.29
74087;SHT30;62445;48.406;-4.518;2023-04-03T07:23:15;21.34;46.24
74087;SHT30;62445;48.406;-4.518;2023-04-03T07:25:44;21.37;46.27
74087;SHT30;62445;48.406;-4.518;2023-04-03T07:28:11;21.40;46.27
74087;SHT30;62445;48.406;-4.518;2023-04-03T07:30:43;21.42;46.33
74087;SHT30;62445;48.406;-4.518;2023-04-03T07:33:08;21.47;46.34
74087;SHT30;62445;48.406;-4.518;2023-04-03T07:35:33;21.48;46.25
74087;SHT30;62445;48.406;-4.518;2023-04-03T07:37:59;21.50;46.23
74087;SHT30;62445;48.406;-4.518;2023-04-03T07:40:25;21.55;46.22
74087;SHT30;62445;48.406;-4.518;2023-04-03T07:42:50;21.51;46.22
74087;SHT30;62445;48.406;-4.518;2023-04-03T07:45:16;21.54;46.13
74087;SHT30;62445;48.406;-4.518;2023-04-03T07:47:42;21.57;46.19
74087;SHT30;62445;48.406;-4.518;2023-04-03T07:50:08;21.55;46.09
74087;SHT30;62445;48.406;-4.518;2023-04-03T07:52:33;21.55;46.14
74087;SHT30;62445;48.406;-4.518;2023-04-03T07:54:59;21.57;46.13
74087;SHT30;62445;48.406;-4.518;2023-04-03T07:57:24;21.57;46.02
74087;SHT30;62445;48.406;-4.518;2023-04-03T07:59:50;21.58;46.02
74087;SHT30;62445;48.406;-4.518;2023-04-03T08:02:15;21.58;45.88
74087;SHT30;62445;48.406;-4.518;2023-04-03T08:04:41;21.58;45.59
74087;SHT30;62445;48.406;-4.518;2023-04-03T08:07:06;21.58;45.67
74087;SHT30;62445;48.406;-4.518;2023-04-03T08:09:31;21.55;45.74
74087;SHT30;62445;48.406;-4.518;2023-04-03T08:11:58;21.58;45.76
74087;SHT30;62445;48.406;-4.518;2023-04-03T08:14:23;21.58;45.74
74087;SHT30;62445;48.406;-4.518;2023-04-03T08:16:49;21.55;45.76
74087;SHT30;62445;48.406;-4.518;2023-04-03T08:19:16;21.57;45.87
74087;SHT30;62445;48.406;-4.518;2023-04-03T08:21:43;21.57;45.82
74087;SHT30;62445;48.406;-4.518;2023-04-03T08:24:09;21.58;45.92
74087;SHT30;62445;48.406;-4.518;2023-04-03T08:26:35;21.57;45.91
74087;SHT30;62445;48.406;-4.518;2023-04-03T08:29:01;21.57;45.83
74087;SHT30;62445;48.406;-4.518;2023-04-03T08:31:26;21.58;45.87
74087;SHT30;62445;48.406;-4.518;2023-04-03T08:33:52;21.58;45.77
74087;SHT30;62445;48.406;-4.518;2023-04-03T08:36:22;21.57;46.05
74087;SHT30;62445;48.406;-4.518;2023-04-03T08:38:49;21.57;45.79
74087;SHT30;62445;48.406;-4.518;2023-04-03T08:41:34;21.57;45.99
74087;SHT30;62445;48.406;-4.518;2023-04-03T08:44:26;21.58;45.92
74087;SHT30;62445;48.406;-4.518;2023-04-03T08:47:02;21.57;45.83
74087;SHT30;62445;48.406;-4.518;2023-04-03T08:49:45;21.58;45.76
74087;SHT30;62445;48.406;-4.518;2023-04-03T08:52:25;21.57;45.63
74087;SHT30;62445;48.406;-4.518;2023-04-03T08:54:58;21.55;45.55
74087;SHT30;62445;48.406;-4.518;2023-04-03T08:57:38;21.55;45.57
74087;SHT30;62445;48.406;-4.518;2023-04-03T09:02:45;21.51;45.53
74087;SHT30;62445;48.406;-4.518;2023-04-03T09:05:20;21.51;45.52
74087;SHT30;62445;48.406;-4.518;2023-04-03T09:08:00;21.51;45.47
74087;SHT30;62445;48.406;-4.518;2023-04-03T09:10:33;21.52;45.47
74087;SHT30;62445;48.406;-4.518;2023-04-03T09:15:56;21.47;45.40
74087;SHT30;62445;48.406;-4.518;2023-04-03T09:18:30;21.47;45.38
74087;SHT30;62445;48.406;-4.518;2023-04-03T09:21:27;21.45;45.47
74087;SHT30;62445;48.406;-4.518;2023-04-03T09:23:59;21.48;45.29
74087;SHT30;62445;48.406;-4.518;2023-04-03T09:26:31;21.44;45.24
74087;SHT30;62445;48.406;-4.518;2023-04-03T09:29:02;21.44;45.09
74087;SHT30;62445;48.406;-4.518;2023-04-03T09:31:36;21.42;45.18
74087;SHT30;62445;48.406;-4.518;2023-04-03T09:34:05;21.40;45.04
74087;SHT30;62445;48.406;-4.518;2023-04-03T09:36:42;21.41;45.08
74087;SHT30;62445;48.406;-4.518;2023-04-03T09:39:24;21.41;44.94
74087;SHT30;62445;48.406;-4.518;2023-04-03T09:41:59;21.40;45.09
74087;SHT30;62445;48.406;-4.518;2023-04-03T09:46:54;21.40;44.94
74087;SHT30;62445;48.406;-4.518;2023-04-03T09:49:19;21.37;44.86
74087;SHT30;62445;48.406;-4.518;2023-04-03T09:51:45;21.38;44.86
74087;SHT30;62445;48.406;-4.518;2023-04-03T09:54:30;21.38;45.07
74087;SHT30;62445;48.406;-4.518;2023-04-03T09:57:08;21.38;44.78
74087;SHT30;62445;48.406;-4.518;2023-04-03T09:59:36;21.37;44.83
74087;SHT30;62445;48.406;-4.518;2023-04-03T10:02:38;21.37;44.96
74087;SHT30;62445;48.406;-4.518;2023-04-03T10:10:43;21.40;44.65
74087;SHT30;62445;48.406;-4.518;2023-04-03T10:13:12;21.38;44.31
74087;SHT30;62445;48.406;-4.518;2023-04-03T10:21:13;21.45;44.72
74087;SHT30;62445;48.406;-4.518;2023-04-03T10:23:51;21.47;44.72
74087;SHT30;62445;48.406;-4.518;2023-04-03T10:26:45;21.52;44.79
74087;SHT30;62445;48.406;-4.518;2023-04-03T10:37:57;21.55;44.26
74087;SHT30;62445;48.406;-4.518;2023-04-03T10:40:39;21.51;43.01
74087;SHT30;62445;48.406;-4.518;2023-04-03T10:45:57;21.55;43.08
74087;SHT30;62445;48.406;-4.518;2023-04-03T10:48:52;21.58;43.65
74087;SHT30;62445;48.406;-4.518;2023-04-03T10:51:50;21.62;43.69
74087;SHT30;62445;48.406;-4.518;2023-04-03T10:54:32;21.65;43.78
74087;SHT30;62445;48.406;-4.518;2023-04-03T10:57:05;21.66;43.63
74087;SHT30;62445;48.406;-4.518;2023-04-03T10:59:44;21.68;43.85
74087;SHT30;62445;48.406;-4.518;2023-04-03T11:02:26;21.69;43.86
74087;SHT30;62445;48.406;-4.518;2023-04-03T11:04:56;21.72;43.66
74087;SHT30;62445;48.406;-4.518;2023-04-03T11:07:27;21.74;43.79
74087;SHT30;62445;48.406;-4.518;2023-04-03T11:10:14;21.77;43.96
74087;SHT30;62445;48.406;-4.518;2023-04-03T11:12:54;21.79;43.92
74087;SHT30;62445;48.406;-4.518;2023-04-03T11:15:24;21.83;43.70
74087;SHT30;62445;48.406;-4.518;2023-04-03T11:17:55;21.88;43.88
74087;SHT30;62445;48.406;-4.518;2023-04-03T11:20:24;21.88;43.73
74087;SHT30;62445;48.406;-4.518;2023-04-03T11:23:14;21.95;43.93
74087;SHT30;62445;48.406;-4.518;2023-04-03T11:25:43;21.95;43.79
74087;SHT30;62445;48.406;-4.518;2023-04-03T11:28:13;21.96;43.80
74087;SHT30;62445;48.406;-4.518;2023-04-03T11:36:24;21.99;43.95
74087;SHT30;62445;48.406;-4.518;2023-04-03T11:38:57;21.99;44.06
74087;SHT30;62445;48.406;-4.518;2023-04-03T11:41:33;22.00;44.16
74087;SHT30;62445;48.406;-4.518;2023-04-03T11:44:02;22.00;44.14
74087;SHT30;62445;48.406;-4.518;2023-04-03T12:05:54;22.10;43.99
74087;SHT30;62445;48.406;-4.518;2023-04-03T12:40:33;22.40;44.72
74087;SHT30;62445;48.406;-4.518;2023-04-03T12:48:38;22.46;44.43
74087;SHT30;62445;48.406;-4.518;2023-04-03T12:51:05;22.48;44.46
74087;SHT30;62445;48.406;-4.518;2023-04-03T12:53:37;22.51;44.64
74087;SHT30;62445;48.406;-4.518;2023-04-03T12:58:49;22.54;44.61
74087;SHT30;62445;48.406;-4.518;2023-04-03T13:01:24;22.56;44.55
74087;SHT30;62445;48.406;-4.518;2023-04-03T13:03:58;22.57;44.68
74087;SHT30;62445;48.406;-4.518;2023-04-03T13:06:27;22.58;44.59
74087;SHT30;62445;48.406;-4.518;2023-04-03T13:08:56;22.57;44.50
74087;SHT30;62445;48.406;-4.518;2023-04-03T13:11:27;22.57;44.60
74087;SHT30;62445;48.406;-4.518;2023-04-03T13:14:05;22.54;44.68
74087;SHT30;62445;48.406;-4.518;2023-04-03T13:16:38;22.57;44.61
74087;SHT30;62445;48.406;-4.518;2023-04-03T13:19:17;22.57;44.66
74087;SHT30;62445;48.406;-4.518;2023-04-03T13:21:44;22.58;44.66
74087;SHT30;62445;48.406;-4.518;2023-04-03T13:24:11;22.58;44.69
74087;SHT30;62445;48.406;-4.518;2023-04-03T13:26:37;22.57;44.67
74087;SHT30;62445;48.406;-4.518;2023-04-03T13:29:05;22.58;44.63
74087;SHT30;62445;48.406;-4.518;2023-04-03T13:31:34;22.61;44.62
74087;SHT30;62445;48.406;-4.518;2023-04-03T13:34:10;22.60;44.63
74087;SHT30;62445;48.406;-4.518;2023-04-03T13:36:43;22.58;44.67
74087;SHT30;62445;48.406;-4.518;2023-04-03T13:41:40;22.57;44.60
74087;SHT30;62445;48.406;-4.518;2023-04-03T13:46:47;22.54;44.68
74087;SHT30;62445;48.406;-4.518;2023-04-03T13:49:23;22.53;44.77
74087;SHT30;62445;48.406;-4.518;2023-04-03T13:51:53;22.53;44.69
74087;SHT30;62445;48.406;-4.518;2023-04-03T13:54:22;22.53;44.68
74087;SHT30;62445;48.406;-4.518;2023-04-03T13:56:56;22.50;44.66
74087;SHT30;62445;48.406;-4.518;2023-04-03T13:59:34;22.47;44.74
74087;SHT30;62445;48.406;-4.518;2023-04-03T14:04:43;22.48;44.70
74087;SHT30;62445;48.406;-4.518;2023-04-03T14:07:12;22.46;44.73
74087;SHT30;62445;48.406;-4.518;2023-04-03T14:09:38;22.43;44.73
74087;SHT30;62445;48.406;-4.518;2023-04-03T14:12:12;22.47;44.79
74087;SHT30;62445;48.406;-4.518;2023-04-03T14:14:40;22.47;44.83
74087;SHT30;62445;48.406;-4.518;2023-04-03T14:17:20;22.48;44.85
74087;SHT30;62445;48.406;-4.518;2023-04-03T14:19:47;22.50;44.82
74087;SHT30;62445;48.406;-4.518;2023-04-03T14:22:18;22.50;44.72
74087;SHT30;62445;48.406;-4.518;2023-04-03T14:24:44;22.50;44.77
74087;SHT30;62445;48.406;-4.518;2023-04-03T14:27:20;22.53;44.79
74087;SHT30;62445;48.406;-4.518;2023-04-03T14:29:47;22.51;44.75
74087;SHT30;62445;48.406;-4.518;2023-04-03T14:32:14;22.56;44.75
74087;SHT30;62445;48.406;-4.518;2023-04-03T14:34:40;22.57;44.74
74087;SHT30;62445;48.406;-4.518;2023-04-03T14:37:11;22.60;44.78
74087;SHT30;62445;48.406;-4.518;2023-04-03T14:39:37;22.60;44.74
74087;SHT30;62445;48.406;-4.518;2023-04-03T14:42:03;22.61;44.63
74087;SHT30;62445;48.406;-4.518;2023-04-03T14:44:28;22.61;44.62
74087;SHT30;62445;48.406;-4.518;2023-04-03T14:46:54;22.65;44.65
74087;SHT30;62445;48.406;-4.518;2023-04-03T14:49:25;22.68;44.64
74087;SHT30;62445;48.406;-4.518;2023-04-03T14:51:52;22.69;44.60
74087;SHT30;62445;48.406;-4.518;2023-04-03T14:54:20;22.72;44.66
74087;SHT30;62445;48.406;-4.518;2023-04-03T14:56:51;22.75;44.60
74087;SHT30;62445;48.406;-4.518;2023-04-03T14:59:16;22.76;44.63
74087;SHT30;62445;48.406;-4.518;2023-04-03T15:01:45;22.81;44.65
74087;SHT30;62445;48.406;-4.518;2023-04-03T15:04:15;22.85;44.58
74087;SHT30;62445;48.406;-4.518;2023-04-03T15:06:42;22.87;44.56
74087;SHT30;62445;48.406;-4.518;2023-04-03T15:11:47;22.98;44.36
74087;SHT30;62445;48.406;-4.518;2023-04-03T15:14:12;23.02;44.25
74087;SHT30;62445;48.406;-4.518;2023-04-03T15:16:38;23.11;44.12
74087;SHT30;62445;48.406;-4.518;2023-04-03T15:19:03;23.19;43.93
74087;SHT30;62445;48.406;-4.518;2023-04-03T15:21:29;23.27;43.78
74087;SHT30;62445;48.406;-4.518;2023-04-03T15:23:54;23.38;43.63
74087;SHT30;62445;48.406;-4.518;2023-04-03T15:26:19;23.47;43.43
74087;SHT30;62445;48.406;-4.518;2023-04-03T15:28:46;23.57;43.15
74087;SHT30;62445;48.406;-4.518;2023-04-03T15:31:11;23.70;42.90
74087;SHT30;62445;48.406;-4.518;2023-04-03T15:33:37;23.82;42.73
74087;SHT30;62445;48.406;-4.518;2023-04-03T15:36:04;23.94;42.43
74087;SHT30;62445;48.406;-4.518;2023-04-03T15:38:29;24.08;42.22
74087;SHT30;62445;48.406;-4.518;2023-04-03T15:40:55;24.15;42.01
74087;SHT30;62445;48.406;-4.518;2023-04-03T15:43:21;24.30;41.82
74087;SHT30;62445;48.406;-4.518;2023-04-03T15:45:47;24.42;41.66
74087;SHT30;62445;48.406;-4.518;2023-04-03T15:48:13;24.51;41.35
74087;SHT30;62445;48.406;-4.518;2023-04-03T15:50:39;24.66;41.10
74087;SHT30;62445;48.406;-4.518;2023-04-03T15:53:05;24.80;40.90
74087;SHT30;62445;48.406;-4.518;2023-04-03T15:55:33;24.97;40.72
74087;SHT30;62445;48.406;-4.518;2023-04-03T15:57:59;25.17;40.27
74087;SHT30;62445;48.406;-4.518;2023-04-03T16:00:26;25.39;39.83
74087;SHT30;62445;48.406;-4.518;2023-04-03T16:02:56;25.59;39.61
74087;SHT30;62445;48.406;-4.518;2023-04-03T16:05:23;25.86;39.01
74087;SHT30;62445;48.406;-4.518;2023-04-03T16:07:50;26.12;38.64
74087;SHT30;62445;48.406;-4.518;2023-04-03T16:10:16;26.40;38.19
74087;SHT30;62445;48.406;-4.518;2023-04-03T16:12:42;26.68;37.70
74087;SHT30;62445;48.406;-4.518;2023-04-03T16:15:08;26.95;37.14
74087;SHT30;62445;48.406;-4.518;2023-04-03T16:17:35;27.24;36.74
74087;SHT30;62445;48.406;-4.518;2023-04-03T16:20:03;27.53;36.32
74087;SHT30;62445;48.406;-4.518;2023-04-03T16:22:30;27.78;35.77
74087;SHT30;62445;48.406;-4.518;2023-04-03T16:24:56;28.02;35.48
74087;SHT30;62445;48.406;-4.518;2023-04-03T16:27:22;28.28;34.91
74087;SHT30;62445;48.406;-4.518;2023-04-03T16:29:47;28.55;34.59
74087;SHT30;62445;48.406;-4.518;2023-04-03T16:32:13;28.78;34.30
74087;SHT30;62445;48.406;-4.518;2023-04-03T16:34:39;29.01;33.80
74087;SHT30;62445;48.406;-4.518;2023-04-03T16:37:06;29.25;33.50
74087;SHT30;62445;48.406;-4.518;2023-04-03T16:39:33;29.48;33.31
74087;SHT30;62445;48.406;-4.518;2023-04-03T16:41:59;29.67;32.96
74087;SHT30;62445;48.406;-4.518;2023-04-03T16:44:25;29.90;32.62
74087;SHT30;62445;48.406;-4.518;2023-04-03T16:46:51;30.08;32.42
74087;SHT30;62445;48.406;-4.518;2023-04-03T16:49:16;30.24;32.13
74087;SHT30;62445;48.406;-4.518;2023-04-03T16:51:42;30.41;31.83
74087;SHT30;62445;48.406;-4.518;2023-04-03T16:54:07;30.54;31.49
74087;SHT30;62445;48.406;-4.518;2023-04-03T16:56:35;30.65;31.63
74087;SHT30;62445;48.406;-4.518;2023-04-03T16:59:01;30.71;31.67
74087;SHT30;62445;48.406;-4.518;2023-04-03T17:01:27;30.79;31.32
74087;SHT30;62445;48.406;-4.518;2023-04-03T17:03:52;30.82;31.44
74087;SHT30;62445;48.406;-4.518;2023-04-03T17:06:19;30.82;31.46
74087;SHT30;62445;48.406;-4.518;2023-04-03T17:08:47;30.87;31.24
74087;SHT30;62445;48.406;-4.518;2023-04-03T17:11:13;30.90;31.27
74087;SHT30;62445;48.406;-4.518;2023-04-03T17:13:39;30.87;31.16
74087;SHT30;62445;48.406;-4.518;2023-04-03T17:16:07;30.83;31.49